sensor_id;sensor_type;location;lat;lon;timestamp;pressure;altitude;pressure_sealevel;temperature;humidity
21594;BME280;10959;51.328;7.322;2022-10-30T00:00:47;98973.88;;;20.14;56.11
21594;BME280;10959;51.328;7.322;2022-10-30T00:03:14;98980.09;;;20.16;56.48
21594;BME280;10959;51.328;7.322;2022-10-30T00:05:41;98975.50;;;20.17;56.26
21594;BME280;10959;51.328;7.322;2022-10-30T00:08:09;98978.34;;;20.15;56.30
21594;BME280;10959;51.328;7.322;2022-10-30T00:10:36;98980.97;;;20.17;55.98
21594;BME280;10959;51.328;7.322;2022-10-30T00:13:02;98980.34;;;20.13;56.52
21594;BME280;10959;51.328;7.322;2022-10-30T00:15:29;98979.22;;;20.16;56.56
21594;BME280;10959;51.328;7.322;2022-10-30T00:17:57;98984.09;;;20.12;56.67
21594;BME280;10959;51.328;7.322;2022-10-30T00:20:23;98986.09;;;20.10;56.97
21594;BME280;10959;51.328;7.322;2022-10-30T00:22:50;98986.09;;;20.10;56.45
21594;BME280;10959;51.328;7.322;2022-10-30T00:25:16;98980.63;;;20.10;56.68
21594;BME280;10959;51.328;7.322;2022-10-30T00:27:43;98986.34;;;20.07;56.48
21594;BME280;10959;51.328;7.322;2022-10-30T00:30:10;98986.50;;;20.06;56.86
21594;BME280;10959;51.328;7.322;2022-10-30T00:32:37;98987.63;;;20.03;56.89
21594;BME280;10959;51.328;7.322;2022-10-30T00:35:05;98986.63;;;20.04;56.60
21594;BME280;10959;51.328;7.322;2022-10-30T00:37:33;98990.34;;;20.03;57.10
21594;BME280;10959;51.328;7.322;2022-10-30T00:39:59;98983.66;;;19.96;57.30
21594;BME280;10959;51.328;7.322;2022-10-30T00:42:28;98992.91;;;19.95;57.51
21594;BME280;10959;51.328;7.322;2022-10-30T00:44:55;98978.47;;;19.93;57.51
21594;BME280;10959;51.328;7.322;2022-10-30T00:47:24;98969.56;;;19.91;57.49
21594;BME280;10959;51.328;7.322;2022-10-30T00:49:55;98960.88;;;19.85;57.59
21594;BME280;10959;51.328;7.322;2022-10-30T00:52:25;98965.72;;;19.82;57.08
21594;BME280;10959;51.328;7.322;2022-10-30T00:54:54;98969.34;;;19.82;57.65
21594;BME280;10959;51.328;7.322;2022-10-30T00:57:22;98967.09;;;19.76;57.57
21594;BME280;10959;51.328;7.322;2022-10-30T00:59:50;98961.88;;;19.73;58.02
21594;BME280;10959;51.328;7.322;2022-10-30T01:02:18;98962.13;;;19.70;57.88
21594;BME280;10959;51.328;7.322;2022-10-30T01:04:47;98960.41;;;19.69;57.51
21594;BME280;10959;51.328;7.322;2022-10-30T01:07:16;98950.00;;;19.63;58.17
21594;BME280;10959;51.328;7.322;2022-10-30T01:09:44;98957.75;;;19.58;58.02
21594;BME280;10959;51.328;7.322;2022-10-30T01:12:12;98961.72;;;19.54;57.91
21594;BME280;10959;51.328;7.322;2022-10-30T01:14:41;98954.50;;;19.52;57.96
21594;BME280;10959;51.328;7.322;2022-10-30T01:17:31;98958.06;;;19.32;58.24
21594;BME280;10959;51.328;7.322;2022-10-30T01:20:11;98957.41;;;19.40;58.29
21594;BME280;10959;51.328;7.322;2022-10-30T01:22:51;98966.72;;;19.37;58.17
21594;BME280;10959;51.328;7.322;2022-10-30T01:25:35;98966.19;;;19.43;58.53
21594;BME280;10959;51.328;7.322;2022-10-30T01:28:12;98964.50;;;19.42;58.03
21594;BME280;10959;51.328;7.322;2022-10-30T01:30:56;98970.44;;;19.36;58.25
21594;BME280;10959;51.328;7.322;2022-10-30T01:33:34;98960.88;;;19.42;58.47
21594;BME280;10959;51.328;7.322;2022-10-30T01:36:08;98973.41;;;19.44;58.30
21594;BME280;10959;51.328;7.322;2022-10-30T01:38:41;98969.44;;;19.48;58.25
21594;BME280;10959;51.328;7.322;2022-10-30T01:41:11;98970.06;;;19.52;58.48
21594;BME280;10959;51.328;7.322;2022-10-30T01:43:38;98972.38;;;19.57;58.23
21594;BME280;10959;51.328;7.322;2022-10-30T01:46:16;98968.69;;;19.46;58.12
21594;BME280;10959;51.328;7.322;2022-10-30T01:49:00;98971.94;;;19.40;58.53
21594;BME280;10959;51.328;7.322;2022-10-30T01:51:41;98971.94;;;19.40;58.46
21594;BME280;10959;51.328;7.322;2022-10-30T01:54:20;98971.59;;;19.33;58.14
21594;BME280;10959;51.328;7.322;2022-10-30T01:57:00;98974.19;;;19.35;58.23
21594;BME280;10959;51.328;7.322;2022-10-30T01:59:30;98986.06;;;19.45;58.12
21594;BME280;10959;51.328;7.322;2022-10-30T02:01:58;98979.75;;;19.45;58.08
21594;BME280;10959;51.328;7.322;2022-10-30T02:04:25;98969.69;;;19.45;58.40
21594;BME280;10959;51.328;7.322;2022-10-30T02:06:52;98972.16;;;19.48;58.00
21594;BME280;10959;51.328;7.322;2022-10-30T02:09:19;98978.59;;;19.47;58.09
21594;BME280;10959;51.328;7.322;2022-10-30T02:11:45;98972.41;;;19.45;58.25
21594;BME280;10959;51.328;7.322;2022-10-30T02:14:17;98977.13;;;19.43;58.30
21594;BME280;10959;51.328;7.322;2022-10-30T02:16:49;98965.97;;;19.46;58.67
21594;BME280;10959;51.328;7.322;2022-10-30T02:19:17;98955.78;;;19.48;58.49
21594;BME280;10959;51.328;7.322;2022-10-30T02:21:45;98973.16;;;19.47;58.83
21594;BME280;10959;51.328;7.322;2022-10-30T02:24:11;98980.34;;;19.48;58.89
21594;BME280;10959;51.328;7.322;2022-10-30T02:26:38;98981.47;;;19.46;58.40
21594;BME280;10959;51.328;7.322;2022-10-30T02:29:04;98981.34;;;19.47;58.69
21594;BME280;10959;51.328;7.322;2022-10-30T02:31:31;98975.16;;;19.45;58.74
21594;BME280;10959;51.328;7.322;2022-10-30T02:33:57;98968.22;;;19.41;58.97
21594;BME280;10959;51.328;7.322;2022-10-30T02:36:24;98968.22;;;19.41;59.10
21594;BME280;10959;51.328;7.322;2022-10-30T02:38:52;98964.75;;;19.39;58.91
21594;BME280;10959;51.328;7.322;2022-10-30T02:41:19;98964.97;;;19.36;59.18
21594;BME280;10959;51.328;7.322;2022-10-30T02:43:46;98969.72;;;19.34;58.78
21594;BME280;10959;51.328;7.322;2022-10-30T02:46:12;98969.22;;;19.29;59.22
21594;BME280;10959;51.328;7.322;2022-10-30T02:48:39;98962.03;;;19.28;58.92
21594;BME280;10959;51.328;7.322;2022-10-30T02:51:05;98966.03;;;19.24;59.15
21594;BME280;10959;51.328;7.322;2022-10-30T02:53:33;98968.00;;;19.22;59.35
21594;BME280;10959;51.328;7.322;2022-10-30T02:56:03;98959.59;;;19.13;59.21
21594;BME280;10959;51.328;7.322;2022-10-30T02:58:30;98963.06;;;19.15;59.50
21594;BME280;10959;51.328;7.322;2022-10-30T03:00:56;98979.81;;;19.11;59.36
21594;BME280;10959;51.328;7.322;2022-10-30T03:03:23;98974.50;;;19.09;59.71
21594;BME280;10959;51.328;7.322;2022-10-30T03:05:49;98966.44;;;19.08;59.62
21594;BME280;10959;51.328;7.322;2022-10-30T03:08:16;98972.03;;;19.06;59.85
21594;BME280;10959;51.328;7.322;2022-10-30T03:10:42;98973.25;;;19.02;59.72
21594;BME280;10959;51.328;7.322;2022-10-30T03:13:10;98969.50;;;19.03;59.75
21594;BME280;10959;51.328;7.322;2022-10-30T03:15:37;98969.78;;;19.00;59.93
21594;BME280;10959;51.328;7.322;2022-10-30T03:18:03;98966.06;;;19.01;59.90
21594;BME280;10959;51.328;7.322;2022-10-30T03:20:30;98966.06;;;19.01;59.91
21594;BME280;10959;51.328;7.322;2022-10-30T03:22:56;98957.13;;;18.99;60.05
21594;BME280;10959;51.328;7.322;2022-10-30T03:25:23;98966.56;;;18.95;60.00
21594;BME280;10959;51.328;7.322;2022-10-30T03:27:49;98964.56;;;18.97;60.17
21594;BME280;10959;51.328;7.322;2022-10-30T03:30:19;98970.28;;;18.94;59.72
21594;BME280;10959;51.328;7.322;2022-10-30T03:32:45;98961.34;;;18.92;60.08
21594;BME280;10959;51.328;7.322;2022-10-30T03:35:12;98956.13;;;18.89;59.98
21594;BME280;10959;51.328;7.322;2022-10-30T03:37:38;98962.06;;;18.82;60.17
21594;BME280;10959;51.328;7.322;2022-10-30T03:40:06;98965.91;;;18.80;60.56
21594;BME280;10959;51.328;7.322;2022-10-30T03:42:32;98966.03;;;18.78;60.42
21594;BME280;10959;51.328;7.322;2022-10-30T03:44:59;98972.34;;;18.79;60.45
21594;BME280;10959;51.328;7.322;2022-10-30T03:47:27;98971.25;;;18.81;60.20
21594;BME280;10959;51.328;7.322;2022-10-30T03:49:53;98976.22;;;18.76;60.51
21594;BME280;10959;51.328;7.322;2022-10-30T03:52:20;98967.78;;;18.79;60.51
21594;BME280;10959;51.328;7.322;2022-10-30T03:54:46;98973.84;;;18.72;60.75
21594;BME280;10959;51.328;7.322;2022-10-30T03:57:12;98980.91;;;18.74;60.62
21594;BME280;10959;51.328;7.322;2022-10-30T03:59:39;98978.94;;;18.76;60.87
21594;BME280;10959;51.328;7.322;2022-10-30T04:02:06;98976.44;;;18.73;60.92
21594;BME280;10959;51.328;7.322;2022-10-30T04:04:33;98961.09;;;18.72;60.58
21594;BME280;10959;51.328;7.322;2022-10-30T04:07:00;98965.31;;;18.65;60.87
21594;BME280;10959;51.328;7.322;2022-10-30T04:09:26;98978.19;;;18.63;61.02
21594;BME280;10959;51.328;7.322;2022-10-30T04:11:53;98973.09;;;18.58;60.93
21594;BME280;10959;51.328;7.322;2022-10-30T04:14:19;98966.28;;;18.53;61.40
21594;BME280;10959;51.328;7.322;2022-10-30T04:16:46;98966.78;;;18.46;61.56
21594;BME280;10959;51.328;7.322;2022-10-30T04:19:12;98964.06;;;18.46;61.61
21594;BME280;10959;51.328;7.322;2022-10-30T04:21:40;98967.25;;;18.40;61.58
21594;BME280;10959;51.328;7.322;2022-10-30T04:24:08;98974.94;;;18.35;61.80
21594;BME280;10959;51.328;7.322;2022-10-30T04:26:34;98980.66;;;18.32;61.82
21594;BME280;10959;51.328;7.322;2022-10-30T04:29:01;98988.06;;;18.30;61.89
21594;BME280;10959;51.328;7.322;2022-10-30T04:31:27;98981.34;;;18.23;62.07
21594;BME280;10959;51.328;7.322;2022-10-30T04:33:54;98987.06;;;18.20;62.15
21594;BME280;10959;51.328;7.322;2022-10-30T04:36:20;98993.59;;;18.17;62.19
21594;BME280;10959;51.328;7.322;2022-10-30T04:38:50;98994.94;;;18.11;62.29
21594;BME280;10959;51.328;7.322;2022-10-30T04:41:16;98989.75;;;18.08;62.63
21594;BME280;10959;51.328;7.322;2022-10-30T04:43:42;98988.25;;;18.04;62.48
21594;BME280;10959;51.328;7.322;2022-10-30T04:46:09;98995.94;;;17.99;62.88
21594;BME280;10959;51.328;7.322;2022-10-30T04:48:35;98984.50;;;17.94;62.86
21594;BME280;10959;51.328;7.322;2022-10-30T04:51:03;98983.94;;;17.89;63.12
21594;BME280;10959;51.328;7.322;2022-10-30T04:53:30;98976.78;;;17.88;63.14
21594;BME280;10959;51.328;7.322;2022-10-30T04:55:57;98982.22;;;17.88;63.17
21594;BME280;10959;51.328;7.322;2022-10-30T04:58:24;98984.44;;;17.83;63.13
21594;BME280;10959;51.328;7.322;2022-10-30T05:00:50;98978.56;;;17.76;63.17
21594;BME280;10959;51.328;7.322;2022-10-30T05:03:19;98986.88;;;17.74;63.20
21594;BME280;10959;51.328;7.322;2022-10-30T05:05:46;98980.16;;;17.67;63.55
21594;BME280;10959;51.328;7.322;2022-10-30T05:08:13;98984.09;;;17.63;63.75
21594;BME280;10959;51.328;7.322;2022-10-30T05:10:39;98982.38;;;17.62;63.56
21594;BME280;10959;51.328;7.322;2022-10-30T05:13:09;98983.06;;;17.53;63.58
21594;BME280;10959;51.328;7.322;2022-10-30T05:15:36;98981.31;;;17.52;63.94
21594;BME280;10959;51.328;7.322;2022-10-30T05:18:02;98971.44;;;17.51;64.21
21594;BME280;10959;51.328;7.322;2022-10-30T05:20:29;98969.03;;;17.46;64.24
21594;BME280;10959;51.328;7.322;2022-10-30T05:22:57;98978.09;;;17.47;64.35
21594;BME280;10959;51.328;7.322;2022-10-30T05:25:24;98973.06;;;17.40;64.41
21594;BME280;10959;51.328;7.322;2022-10-30T05:27:56;98969.06;;;17.33;64.31
21594;BME280;10959;51.328;7.322;2022-10-30T05:30:25;98975.72;;;17.42;64.21
21594;BME280;10959;51.328;7.322;2022-10-30T05:32:56;98979.00;;;17.34;64.51
21594;BME280;10959;51.328;7.322;2022-10-30T05:35:23;98968.53;;;17.41;64.40
21594;BME280;10959;51.328;7.322;2022-10-30T05:37:49;98965.91;;;17.39;64.30
21594;BME280;10959;51.328;7.322;2022-10-30T05:40:16;98961.97;;;17.43;64.25
21594;BME280;10959;51.328;7.322;2022-10-30T05:42:44;98962.97;;;17.42;64.59
21594;BME280;10959;51.328;7.322;2022-10-30T05:45:10;98949.59;;;17.39;64.49
21594;BME280;10959;51.328;7.322;2022-10-30T05:47:38;98956.75;;;17.40;64.72
21594;BME280;10959;51.328;7.322;2022-10-30T05:50:06;98958.72;;;17.38;64.72
21594;BME280;10959;51.328;7.322;2022-10-30T05:52:33;98961.81;;;17.34;65.01
21594;BME280;10959;51.328;7.322;2022-10-30T05:55:00;98954.38;;;17.36;64.97
21594;BME280;10959;51.328;7.322;2022-10-30T05:57:27;98946.56;;;17.31;64.94
21594;BME280;10959;51.328;7.322;2022-10-30T05:59:54;98952.00;;;17.31;65.10
21594;BME280;10959;51.328;7.322;2022-10-30T06:02:20;98942.22;;;17.28;65.16
21594;BME280;10959;51.328;7.322;2022-10-30T06:04:48;98944.81;;;17.30;65.13
21594;BME280;10959;51.328;7.322;2022-10-30T06:07:15;98931.44;;;17.27;65.27
21594;BME280;10959;51.328;7.322;2022-10-30T06:09:41;98939.63;;;17.27;65.12
21594;BME280;10959;51.328;7.322;2022-10-30T06:12:07;98937.88;;;17.26;65.32
21594;BME280;10959;51.328;7.322;2022-10-30T06:14:34;98939.84;;;17.24;65.17
21594;BME280;10959;51.328;7.322;2022-10-30T06:17:01;98933.66;;;17.22;65.28
21594;BME280;10959;51.328;7.322;2022-10-30T06:19:27;98934.75;;;17.19;65.48
21594;BME280;10959;51.328;7.322;2022-10-30T06:21:55;98938.44;;;17.18;65.47
21594;BME280;10959;51.328;7.322;2022-10-30T06:24:22;98941.44;;;17.02;65.99
21594;BME280;10959;51.328;7.322;2022-10-30T06:26:48;98943.63;;;16.97;66.26
21594;BME280;10959;51.328;7.322;2022-10-30T06:29:15;98931.25;;;16.93;66.13
21594;BME280;10959;51.328;7.322;2022-10-30T06:31:41;98940.59;;;16.89;66.33
21594;BME280;10959;51.328;7.322;2022-10-30T06:34:08;98937.97;;;16.87;66.24
21594;BME280;10959;51.328;7.322;2022-10-30T06:36:34;98943.53;;;16.86;66.27
21594;BME280;10959;51.328;7.322;2022-10-30T06:39:02;98934.31;;;16.88;66.23
21594;BME280;10959;51.328;7.322;2022-10-30T06:41:29;98936.06;;;16.76;66.70
21594;BME280;10959;51.328;7.322;2022-10-30T06:43:56;98943.00;;;16.81;66.40
21594;BME280;10959;51.328;7.322;2022-10-30T06:46:22;98942.34;;;16.77;66.76
21594;BME280;10959;51.328;7.322;2022-10-30T06:48:49;98941.50;;;16.76;66.79
21594;BME280;10959;51.328;7.322;2022-10-30T06:51:15;98947.16;;;16.73;66.78
21594;BME280;10959;51.328;7.322;2022-10-30T06:53:42;98954.31;;;16.74;66.78
21594;BME280;10959;51.328;7.322;2022-10-30T06:56:10;98960.53;;;16.76;66.66
21594;BME280;10959;51.328;7.322;2022-10-30T06:58:38;98955.84;;;16.79;67.20
21594;BME280;10959;51.328;7.322;2022-10-30T07:01:05;98961.50;;;16.75;67.05
21594;BME280;10959;51.328;7.322;2022-10-30T07:03:32;98959.31;;;16.81;67.29
21594;BME280;10959;51.328;7.322;2022-10-30T07:05:58;98960.84;;;16.85;67.15
21594;BME280;10959;51.328;7.322;2022-10-30T07:08:25;98969.75;;;16.87;67.28
21594;BME280;10959;51.328;7.322;2022-10-30T07:10:51;98966.72;;;16.91;67.13
21594;BME280;10959;51.328;7.322;2022-10-30T07:13:19;98977.06;;;16.99;67.13
21594;BME280;10959;51.328;7.322;2022-10-30T07:15:46;98979.97;;;16.96;66.88
21594;BME280;10959;51.328;7.322;2022-10-30T07:18:12;98981.28;;;17.03;66.91
21594;BME280;10959;51.328;7.322;2022-10-30T07:20:39;98974.28;;;17.12;66.90
21594;BME280;10959;51.328;7.322;2022-10-30T07:23:05;98974.69;;;17.19;66.99
21594;BME280;10959;51.328;7.322;2022-10-30T07:25:32;98982.19;;;17.28;66.92
21594;BME280;10959;51.328;7.322;2022-10-30T07:27:58;98988.91;;;17.35;66.77
21594;BME280;10959;51.328;7.322;2022-10-30T07:30:27;98978.53;;;17.40;66.79
21594;BME280;10959;51.328;7.322;2022-10-30T07:32:58;98980.28;;;17.41;66.79
21594;BME280;10959;51.328;7.322;2022-10-30T07:35:24;98979.47;;;17.52;67.12
21594;BME280;10959;51.328;7.322;2022-10-30T07:37:51;98984.31;;;17.60;66.87
21594;BME280;10959;51.328;7.322;2022-10-30T07:40:18;98987.34;;;17.68;66.58
21594;BME280;10959;51.328;7.322;2022-10-30T07:42:45;98986.88;;;17.74;66.59
21594;BME280;10959;51.328;7.322;2022-10-30T07:45:11;98974.50;;;17.82;66.53
21594;BME280;10959;51.328;7.322;2022-10-30T07:47:40;98975.88;;;17.87;66.38
21594;BME280;10959;51.328;7.322;2022-10-30T07:50:08;98985.03;;;17.99;66.25
21594;BME280;10959;51.328;7.322;2022-10-30T07:52:35;98979.34;;;18.02;66.24
21594;BME280;10959;51.328;7.322;2022-10-30T07:55:02;98982.09;;;18.13;65.98
21594;BME280;10959;51.328;7.322;2022-10-30T07:57:30;98984.56;;;18.17;65.76
21594;BME280;10959;51.328;7.322;2022-10-30T07:59:56;98983.59;;;18.18;65.77
21594;BME280;10959;51.328;7.322;2022-10-30T08:02:23;98977.50;;;18.14;65.71
21594;BME280;10959;51.328;7.322;2022-10-30T08:04:51;98979.00;;;18.18;65.92
21594;BME280;10959;51.328;7.322;2022-10-30T08:07:17;98976.88;;;18.22;65.70
21594;BME280;10959;51.328;7.322;2022-10-30T08:09:44;98981.63;;;18.31;65.77
21594;BME280;10959;51.328;7.322;2022-10-30T08:12:12;98975.81;;;18.36;65.57
21594;BME280;10959;51.328;7.322;2022-10-30T08:14:38;98977.69;;;18.46;65.25
21594;BME280;10959;51.328;7.322;2022-10-30T08:17:04;98977.31;;;18.51;65.56
21594;BME280;10959;51.328;7.322;2022-10-30T08:19:31;98972.72;;;18.63;65.33
21594;BME280;10959;51.328;7.322;2022-10-30T08:21:59;98977.47;;;18.72;65.34
21594;BME280;10959;51.328;7.322;2022-10-30T08:24:26;98975.22;;;18.77;65.21
21594;BME280;10959;51.328;7.322;2022-10-30T08:26:53;98972.97;;;18.82;64.72
21594;BME280;10959;51.328;7.322;2022-10-30T08:29:19;98983.16;;;18.92;64.61
21594;BME280;10959;51.328;7.322;2022-10-30T08:31:46;98981.19;;;18.94;63.80
21594;BME280;10959;51.328;7.322;2022-10-30T08:34:13;98982.06;;;18.94;63.89
21594;BME280;10959;51.328;7.322;2022-10-30T08:36:40;98975.50;;;18.97;64.11
21594;BME280;10959;51.328;7.322;2022-10-30T08:39:08;98979.31;;;19.06;64.08
21594;BME280;10959;51.328;7.322;2022-10-30T08:41:35;98973.72;;;19.19;63.68
21594;BME280;10959;51.328;7.322;2022-10-30T08:44:02;98980.13;;;19.29;63.51
21594;BME280;10959;51.328;7.322;2022-10-30T08:46:28;98976.28;;;19.43;63.67
21594;BME280;10959;51.328;7.322;2022-10-30T08:48:55;98972.13;;;19.60;63.50
21594;BME280;10959;51.328;7.322;2022-10-30T08:51:21;98967.72;;;19.80;63.39
21594;BME280;10959;51.328;7.322;2022-10-30T08:53:48;98962.56;;;19.98;63.57
21594;BME280;10959;51.328;7.322;2022-10-30T08:56:16;98958.22;;;20.16;62.80
21594;BME280;10959;51.328;7.322;2022-10-30T08:58:43;98954.25;;;20.30;62.82
21594;BME280;10959;51.328;7.322;2022-10-30T09:01:09;98948.59;;;20.43;62.29
21594;BME280;10959;51.328;7.322;2022-10-30T09:03:36;98947.50;;;20.55;61.76
21594;BME280;10959;51.328;7.322;2022-10-30T09:06:03;98949.91;;;20.70;62.28
21594;BME280;10959;51.328;7.322;2022-10-30T09:08:30;98948.53;;;20.85;61.69
21594;BME280;10959;51.328;7.322;2022-10-30T09:10:57;98946.25;;;21.00;61.82
21594;BME280;10959;51.328;7.322;2022-10-30T09:13:25;98950.06;;;21.09;61.01
21594;BME280;10959;51.328;7.322;2022-10-30T09:15:51;98948.06;;;21.21;61.14
21594;BME280;10959;51.328;7.322;2022-10-30T09:18:18;98946.06;;;21.33;61.41
21594;BME280;10959;51.328;7.322;2022-10-30T09:20:47;98950.72;;;21.42;60.87
21594;BME280;10959;51.328;7.322;2022-10-30T09:23:13;98951.63;;;21.52;60.17
21594;BME280;10959;51.328;7.322;2022-10-30T09:25:40;98947.59;;;21.56;60.20
21594;BME280;10959;51.328;7.322;2022-10-30T09:28:06;98954.22;;;21.64;60.19
21594;BME280;10959;51.328;7.322;2022-10-30T09:30:34;98943.38;;;21.72;60.09
21594;BME280;10959;51.328;7.322;2022-10-30T09:33:01;98938.03;;;21.80;60.05
21594;BME280;10959;51.328;7.322;2022-10-30T09:35:28;98945.97;;;21.93;58.90
21594;BME280;10959;51.328;7.322;2022-10-30T09:37:55;98942.53;;;22.01;58.38
21594;BME280;10959;51.328;7.322;2022-10-30T09:40:29;98943.53;;;22.00;58.94
21594;BME280;10959;51.328;7.322;2022-10-30T09:43:04;98946.41;;;22.08;57.97
21594;BME280;10959;51.328;7.322;2022-10-30T09:46:00;98947.88;;;22.02;58.53
21594;BME280;10959;51.328;7.322;2022-10-30T09:48:53;98946.72;;;22.05;57.75
21594;BME280;10959;51.328;7.322;2022-10-30T09:51:34;98942.94;;;22.06;56.75
21594;BME280;10959;51.328;7.322;2022-10-30T09:54:11;98939.31;;;22.15;56.98
21594;BME280;10959;51.328;7.322;2022-10-30T09:56:43;98940.88;;;22.27;56.41
21594;BME280;10959;51.328;7.322;2022-10-30T09:59:20;98934.97;;;22.22;56.45
21594;BME280;10959;51.328;7.322;2022-10-30T10:01:57;98924.13;;;22.40;56.50
21594;BME280;10959;51.328;7.322;2022-10-30T10:04:32;98923.09;;;22.51;56.23
21594;BME280;10959;51.328;7.322;2022-10-30T10:07:06;98925.66;;;22.63;55.87
21594;BME280;10959;51.328;7.322;2022-10-30T10:09:37;98926.59;;;22.81;56.12
21594;BME280;10959;51.328;7.322;2022-10-30T10:12:07;98927.97;;;22.95;56.09
21594;BME280;10959;51.328;7.322;2022-10-30T10:14:36;98925.03;;;23.06;55.92
21594;BME280;10959;51.328;7.322;2022-10-30T10:17:11;98925.56;;;23.10;55.13
21594;BME280;10959;51.328;7.322;2022-10-30T10:19:42;98928.13;;;23.21;54.33
21594;BME280;10959;51.328;7.322;2022-10-30T10:22:18;98931.88;;;23.20;54.43
21594;BME280;10959;51.328;7.322;2022-10-30T10:24:45;98930.97;;;23.29;53.83
21594;BME280;10959;51.328;7.322;2022-10-30T10:27:22;98934.41;;;23.32;54.01
21594;BME280;10959;51.328;7.322;2022-10-30T10:29:59;98940.72;;;23.42;53.18
21594;BME280;10959;51.328;7.322;2022-10-30T10:38:33;98927.84;;;23.60;51.72
21594;BME280;10959;51.328;7.322;2022-10-30T10:41:10;98916.69;;;23.80;51.83
21594;BME280;10959;51.328;7.322;2022-10-30T10:43:57;98926.69;;;23.99;52.01
21594;BME280;10959;51.328;7.322;2022-10-30T10:46:34;98923.06;;;23.98;50.76
21594;BME280;10959;51.328;7.322;2022-10-30T10:49:15;98919.16;;;24.01;50.65
21594;BME280;10959;51.328;7.322;2022-10-30T10:51:48;98913.31;;;24.30;51.20
21594;BME280;10959;51.328;7.322;2022-10-30T10:54:19;98913.44;;;24.47;50.78
21594;BME280;10959;51.328;7.322;2022-10-30T10:56:50;98917.44;;;24.53;49.95
21594;BME280;10959;51.328;7.322;2022-10-30T10:59:19;98914.94;;;24.67;50.21
21594;BME280;10959;51.328;7.322;2022-10-30T11:01:53;98921.13;;;24.61;49.34
21594;BME280;10959;51.328;7.322;2022-10-30T11:04:29;98908.44;;;24.69;50.26
21594;BME280;10959;51.328;7.322;2022-10-30T11:06:57;98914.38;;;24.90;48.75
21594;BME280;10959;51.328;7.322;2022-10-30T11:09:25;98925.41;;;24.90;49.07
21594;BME280;10959;51.328;7.322;2022-10-30T11:11:53;98913.53;;;24.90;48.79
21594;BME280;10959;51.328;7.322;2022-10-30T11:14:21;98912.28;;;24.84;48.40
21594;BME280;10959;51.328;7.322;2022-10-30T11:17:03;98917.75;;;24.76;49.22
21594;BME280;10959;51.328;7.322;2022-10-30T11:19:32;98914.72;;;24.87;47.96
21594;BME280;10959;51.328;7.322;2022-10-30T11:21:59;98919.88;;;24.90;48.76
21594;BME280;10959;51.328;7.322;2022-10-30T11:24:29;98914.03;;;24.93;48.50
21594;BME280;10959;51.328;7.322;2022-10-30T11:26:57;98904.75;;;24.94;47.91
21594;BME280;10959;51.328;7.322;2022-10-30T11:29:26;98910.66;;;24.99;49.11
21594;BME280;10959;51.328;7.322;2022-10-30T11:32:00;98908.53;;;24.93;47.82
21594;BME280;10959;51.328;7.322;2022-10-30T11:34:33;98902.38;;;24.99;47.74
21594;BME280;10959;51.328;7.322;2022-10-30T11:37:00;98893.41;;;24.97;47.12
21594;BME280;10959;51.328;7.322;2022-10-30T11:39:29;98891.66;;;24.96;48.13
21594;BME280;10959;51.328;7.322;2022-10-30T11:41:59;98888.22;;;24.94;48.76
21594;BME280;10959;51.328;7.322;2022-10-30T11:44:29;98894.41;;;24.88;47.24
21594;BME280;10959;51.328;7.322;2022-10-30T11:46:56;98891.66;;;24.96;49.05
21594;BME280;10959;51.328;7.322;2022-10-30T11:49:38;98890.59;;;24.89;47.49
21594;BME280;10959;51.328;7.322;2022-10-30T11:52:07;98897.03;;;25.06;48.23
21594;BME280;10959;51.328;7.322;2022-10-30T11:54:35;98902.06;;;25.19;48.50
21594;BME280;10959;51.328;7.322;2022-10-30T11:57:03;98895.56;;;25.28;48.95
21594;BME280;10959;51.328;7.322;2022-10-30T11:59:30;98896.31;;;25.39;47.90
21594;BME280;10959;51.328;7.322;2022-10-30T12:01:59;98888.06;;;25.47;48.25
21594;BME280;10959;51.328;7.322;2022-10-30T12:04:28;98889.44;;;25.51;48.08
21594;BME280;10959;51.328;7.322;2022-10-30T12:07:08;98878.03;;;25.38;47.76
21594;BME280;10959;51.328;7.322;2022-10-30T12:09:43;98886.69;;;25.59;48.24
21594;BME280;10959;51.328;7.322;2022-10-30T12:12:11;98881.88;;;25.69;47.43
21594;BME280;10959;51.328;7.322;2022-10-30T12:14:40;98872.91;;;25.67;47.51
21594;BME280;10959;51.328;7.322;2022-10-30T12:17:07;98874.81;;;25.75;47.83
21594;BME280;10959;51.328;7.322;2022-10-30T12:19:34;98871.53;;;25.80;47.74
21594;BME280;10959;51.328;7.322;2022-10-30T12:22:00;98877.56;;;25.83;47.69
21594;BME280;10959;51.328;7.322;2022-10-30T12:24:31;98867.03;;;25.79;48.28
21594;BME280;10959;51.328;7.322;2022-10-30T12:27:01;98874.63;;;25.85;47.47
21594;BME280;10959;51.328;7.322;2022-10-30T12:29:38;98871.34;;;25.65;47.45
21594;BME280;10959;51.328;7.322;2022-10-30T12:32:07;98869.81;;;25.79;47.89
21594;BME280;10959;51.328;7.322;2022-10-30T12:34:40;98872.56;;;25.70;46.93
21594;BME280;10959;51.328;7.322;2022-10-30T12:37:13;98874.28;;;25.63;47.55
21594;BME280;10959;51.328;7.322;2022-10-30T12:39:59;98877.38;;;25.44;48.39
21594;BME280;10959;51.328;7.322;2022-10-30T12:42:27;98881.53;;;25.64;47.72
21594;BME280;10959;51.328;7.322;2022-10-30T12:45:06;98879.06;;;25.45;47.69
21594;BME280;10959;51.328;7.322;2022-10-30T12:47:39;98883.53;;;25.38;47.24
21594;BME280;10959;51.328;7.322;2022-10-30T12:50:16;98874.94;;;25.32;47.55
21594;BME280;10959;51.328;7.322;2022-10-30T12:52:46;98877.38;;;25.44;48.02
21594;BME280;10959;51.328;7.322;2022-10-30T12:55:19;98877.69;;;25.41;48.54
21594;BME280;10959;51.328;7.322;2022-10-30T12:57:52;98879.44;;;25.42;48.67
21594;BME280;10959;51.328;7.322;2022-10-30T13:00:20;98885.97;;;25.49;47.92
21594;BME280;10959;51.328;7.322;2022-10-30T13:02:52;98880.78;;;25.38;47.96
21594;BME280;10959;51.328;7.322;2022-10-30T13:05:29;98880.13;;;25.35;48.10
21594;BME280;10959;51.328;7.322;2022-10-30T13:08:04;98881.13;;;25.34;47.81
21594;BME280;10959;51.328;7.322;2022-10-30T13:10:41;98883.84;;;25.26;47.82
21594;BME280;10959;51.328;7.322;2022-10-30T13:13:14;98879.03;;;25.28;47.32
21594;BME280;10959;51.328;7.322;2022-10-30T13:15:45;98875.56;;;25.26;47.51